Time;durP1;ratioP1;P1;durP2;ratioP2;P2;SDS_P1;SDS_P2;PMS_P1;PMS_P2;Temp;Humidity;BMP_temperature;BMP_pressure;BME280_temperature;BME280_humidity;BME280_pressure;Samples;Min_cycle;Max_cycle;Signal;HPM_P1;HPM_P2
2022/03/26 00:00:39;;;;;;;27.40;17.90;;;;;;;4.55;37.36;101347.56;117234;1185;21976;-57
2022/03/26 00:03:08;;;;;;;27.80;18.30;;;;;;;4.53;37.42;101347.16;117346;1185;23563;-50
2022/03/26 00:05:37;;;;;;;28.80;19.50;;;;;;;4.53;37.72;101344.20;117299;1186;21945;-57
2022/03/26 00:08:07;;;;;;;28.70;19.30;;;;;;;4.54;37.72;101345.09;117361;1185;23826;-56
2022/03/26 00:10:36;;;;;;;25.80;18.40;;;;;;;4.53;37.76;101341.77;117355;1185;22946;-56
2022/03/26 00:13:05;;;;;;;28.20;18.10;;;;;;;4.53;37.68;101339.50;117365;1185;23601;-50
2022/03/26 00:15:33;;;;;;;33.10;19.20;;;;;;;4.52;37.85;101336.17;117343;1185;21848;-50
2022/03/26 00:18:02;;;;;;;28.20;19.10;;;;;;;4.49;37.62;101333.85;117144;1188;21852;-56
2022/03/26 00:20:32;;;;;;;27.60;18.50;;;;;;;4.49;37.73;101336.95;117295;1186;21852;-57
2022/03/26 00:23:01;;;;;;;25.70;18.20;;;;;;;4.47;37.59;101339.00;117340;1185;22880;-56
2022/03/26 00:25:29;;;;;;;32.70;19.50;;;;;;;4.45;37.71;101335.13;117339;1186;23432;-50
2022/03/26 00:27:57;;;;;;;28.40;18.00;;;;;;;4.42;37.67;101334.70;117256;1186;24173;-57
2022/03/26 00:30:26;;;;;;;31.20;19.30;;;;;;;4.39;37.89;101336.33;117212;1185;22074;-58
2022/03/26 00:32:55;;;;;;;27.70;19.00;;;;;;;4.35;37.84;101337.27;117187;1186;21849;-50
2022/03/26 00:35:23;;;;;;;29.90;20.10;;;;;;;4.31;37.88;101336.64;117193;1188;22461;-50
2022/03/26 00:37:53;;;;;;;30.30;19.50;;;;;;;4.25;38.00;101336.48;117350;1185;23110;-56
2022/03/26 00:40:21;;;;;;;31.50;19.90;;;;;;;4.23;37.77;101338.48;117366;1186;22632;-51
2022/03/26 00:42:50;;;;;;;29.60;19.40;;;;;;;4.22;38.02;101335.68;117322;1186;23432;-50
2022/03/26 00:45:20;;;;;;;29.60;19.50;;;;;;;4.22;37.87;101332.20;117298;1182;23000;-51
2022/03/26 00:47:48;;;;;;;31.00;19.40;;;;;;;4.24;38.06;101335.89;117357;1189;22909;-51
2022/03/26 00:50:17;;;;;;;30.80;20.40;;;;;;;4.25;38.01;101336.80;117278;1185;23465;-50
2022/03/26 00:52:47;;;;;;;28.60;19.70;;;;;;;4.26;38.05;101338.58;117248;1186;21890;-57
2022/03/26 00:55:15;;;;;;;28.80;19.40;;;;;;;4.27;37.96;101341.04;117292;1184;21852;-50
2022/03/26 00:57:44;;;;;;;26.90;19.10;;;;;;;4.27;38.18;101339.84;117309;1185;23238;-57
2022/03/26 01:00:14;;;;;;;29.70;20.60;;;;;;;4.26;38.07;101341.17;117322;1185;22071;-50
2022/03/26 01:02:44;;;;;;;29.80;20.20;;;;;;;4.24;38.67;101340.61;117354;1185;22981;-56
2022/03/26 01:05:13;;;;;;;29.30;19.90;;;;;;;4.21;38.52;101344.69;117350;1185;23477;-59
2022/03/26 01:07:42;;;;;;;30.80;19.80;;;;;;;4.19;38.49;101346.19;117269;1182;21849;-56
2022/03/26 01:10:30;;;;;;;31.60;20.80;;;;;;;4.18;38.38;101349.10;117315;1188;21854;-50
2022/03/26 01:13:00;;;;;;;28.90;20.30;;;;;;;4.14;38.27;101347.79;117305;1185;23538;-50
2022/03/26 01:15:30;;;;;;;27.90;19.20;;;;;;;4.11;38.31;101349.09;117216;1188;21852;-56
2022/03/26 01:17:58;;;;;;;33.90;20.20;;;;;;;4.07;38.46;101346.87;117150;1186;22905;-50
2022/03/26 01:20:27;;;;;;;31.10;21.10;;;;;;;4.04;38.58;101346.27;117270;1187;21848;-57
2022/03/26 01:22:56;;;;;;;31.00;21.70;;;;;;;4.01;38.75;101345.67;117139;1188;22671;-57
2022/03/26 01:25:25;;;;;;;28.60;19.50;;;;;;;4.00;38.67;101345.63;117340;1186;23508;-50
2022/03/26 01:27:54;;;;;;;30.30;21.20;;;;;;;4.00;38.64;101344.06;117319;1185;23502;-57
2022/03/26 01:30:24;;;;;;;25.60;18.70;;;;;;;3.99;38.58;101343.34;117338;1186;22909;-56
2022/03/26 01:32:53;;;;;;;;;;;;;;;3.99;38.90;101347.00;117351;1186;23439;-56
2022/03/26 01:35:22;;;;;;;28.00;19.50;;;;;;;3.99;38.88;101345.08;117353;1186;21960;-50
2022/03/26 01:37:51;;;;;;;29.80;19.70;;;;;;;3.97;38.69;101351.61;117356;1185;23707;-49
2022/03/26 01:40:20;;;;;;;29.70;19.80;;;;;;;3.95;38.59;101356.78;117334;1186;22834;-56
2022/03/26 01:42:48;;;;;;;28.20;19.00;;;;;;;3.96;38.62;101358.37;117281;1186;24275;-55
2022/03/26 01:45:18;;;;;;;32.20;20.00;;;;;;;4.00;38.46;101358.84;117293;1186;21869;-50
2022/03/26 01:47:46;;;;;;;28.90;19.60;;;;;;;4.02;38.48;101359.77;117252;1186;23558;-52
2022/03/26 01:50:15;;;;;;;27.90;19.20;;;;;;;4.03;38.65;101359.98;117334;1186;21852;-49
2022/03/26 01:52:44;;;;;;;29.70;20.30;;;;;;;4.03;38.50;101360.83;117367;1186;24142;-50
2022/03/26 01:55:14;;;;;;;32.90;21.70;;;;;;;4.02;38.45;101362.01;117274;1186;21882;-55
2022/03/26 01:57:42;;;;;;;36.40;22.90;;;;;;;4.01;38.46;101361.31;117317;1188;21897;-56
2022/03/26 02:00:12;;;;;;;34.30;22.20;;;;;;;3.95;38.35;101360.25;117257;1186;21858;-56
2022/03/26 02:02:44;;;;;;;28.30;19.50;;;;;;;3.87;38.36;101360.00;117373;1186;22925;-50
2022/03/26 02:05:14;;;;;;;28.40;18.40;;;;;;;3.78;38.31;101362.50;117325;1186;21856;-57
2022/03/26 02:07:45;;;;;;;29.60;19.60;;;;;;;3.71;38.16;101363.33;117177;1186;23451;-56
2022/03/26 02:10:14;;;;;;;28.40;19.20;;;;;;;3.65;38.11;101367.48;117301;1186;22929;-51
2022/03/26 02:12:46;;;;;;;30.00;20.00;;;;;;;3.59;38.30;101367.11;117313;1185;23708;-56
2022/03/26 02:15:15;;;;;;;35.30;20.80;;;;;;;3.52;38.20;101367.56;117346;1185;22996;-50
2022/03/26 02:17:44;;;;;;;29.30;20.60;;;;;;;3.39;38.09;101368.55;117290;1186;21951;-50
2022/03/26 02:20:13;;;;;;;45.20;25.60;;;;;;;3.31;38.17;101371.05;117342;1186;22912;-56
2022/03/26 02:22:42;;;;;;;37.70;22.20;;;;;;;3.24;38.19;101372.22;117332;1186;21852;-51
2022/03/26 02:25:11;;;;;;;32.60;20.70;;;;;;;3.14;38.32;101370.33;117291;1185;21858;-57
2022/03/26 02:27:39;;;;;;;34.40;20.30;;;;;;;3.16;38.25;101370.03;117368;1186;23579;-49
2022/03/26 02:30:09;;;;;;;33.60;21.10;;;;;;;3.15;38.21;101368.61;117294;1181;21848;-56
2022/03/26 02:32:37;;;;;;;20.40;13.90;;;;;;;3.13;38.27;101366.46;117364;1185;21923;-50
2022/03/26 02:35:08;;;;;;;27.00;18.60;;;;;;;3.10;38.29;101370.52;117366;1185;22036;-59
2022/03/26 02:37:37;;;;;;;27.00;17.60;;;;;;;3.07;38.32;101370.42;117347;1185;22922;-57
2022/03/26 02:40:07;;;;;;;28.70;18.50;;;;;;;3.04;38.42;101372.95;117327;1186;23446;-49
2022/03/26 02:42:36;;;;;;;27.00;18.70;;;;;;;3.02;38.41;101378.06;117275;1186;21850;-50
2022/03/26 02:45:06;;;;;;;29.70;20.70;;;;;;;3.00;38.43;101381.45;117342;1186;21983;-56
2022/03/26 02:47:35;;;;;;;29.30;19.40;;;;;;;2.98;38.53;101380.70;117279;1186;21852;-57
2022/03/26 02:50:06;;;;;;;31.60;20.90;;;;;;;2.94;38.43;101377.09;117365;1185;23635;-50
2022/03/26 02:52:37;;;;;;;29.90;21.10;;;;;;;2.80;38.47;101376.27;117343;1186;21855;-57
2022/03/26 02:55:08;;;;;;;31.30;20.40;;;;;;;2.71;38.39;101376.44;117375;1186;22912;-50
2022/03/26 02:57:36;;;;;;;27.90;19.00;;;;;;;2.62;38.30;101377.02;117358;1185;21858;-50
2022/03/26 03:00:07;;;;;;;28.50;19.70;;;;;;;2.54;38.43;101378.30;117369;1185;23426;-50
2022/03/26 03:02:35;;;;;;;28.20;18.70;;;;;;;2.43;38.56;101381.17;117344;1186;22986;-51
2022/03/26 03:05:05;;;;;;;32.10;20.80;;;;;;;2.32;38.53;101377.80;117337;1185;22786;-57
2022/03/26 03:07:33;;;;;;;27.50;18.50;;;;;;;2.25;38.48;101379.44;117356;1185;21868;-57
2022/03/26 03:10:05;;;;;;;30.50;19.70;;;;;;;2.21;38.46;101375.35;117238;1187;23425;-57
2022/03/26 03:12:53;;;;;;;36.30;22.60;;;;;;;2.12;38.65;101378.09;117296;1185;21852;-57
2022/03/26 03:15:22;;;;;;;31.00;20.40;;;;;;;2.12;38.75;101379.15;117302;1186;21853;-50
2022/03/26 03:18:02;;;;;;;33.30;23.00;;;;;;;2.07;38.48;101378.77;117296;1186;23433;-57
2022/03/26 03:20:31;;;;;;;33.30;22.20;;;;;;;2.02;38.83;101382.08;117277;1182;21874;-51
2022/03/26 03:23:01;;;;;;;34.00;23.30;;;;;;;2.00;38.81;101378.52;117116;1187;21871;-56
2022/03/26 03:25:31;;;;;;;28.00;18.10;;;;;;;1.97;38.93;101381.17;117112;1188;23455;-50
2022/03/26 03:27:59;;;;;;;34.80;21.30;;;;;;;1.89;38.95;101387.96;117361;1186;23437;-57
2022/03/26 03:30:28;;;;;;;31.60;21.10;;;;;;;1.81;39.06;101386.08;117360;1185;23456;-57
2022/03/26 03:32:57;;;;;;;35.80;23.00;;;;;;;1.76;39.10;101383.14;117329;1186;23428;-50
2022/03/26 03:35:26;;;;;;;31.50;20.70;;;;;;;1.69;38.93;101384.06;117361;1186;23455;-50
2022/03/26 03:37:54;;;;;;;33.00;21.20;;;;;;;1.55;38.85;101382.83;117272;1185;21882;-58
2022/03/26 03:40:23;;;;;;;35.10;22.60;;;;;;;1.50;39.10;101384.34;117336;1185;22922;-57
2022/03/26 03:42:53;;;;;;;33.30;21.20;;;;;;;1.50;39.26;101382.26;117245;1186;23547;-51
2022/03/26 03:45:22;;;;;;;37.80;22.50;;;;;;;1.48;39.34;101387.53;117330;1186;21862;-57
2022/03/26 03:47:51;;;;;;;34.50;22.90;;;;;;;1.46;39.19;101392.14;117273;1188;23560;-49
2022/03/26 03:50:19;;;;;;;30.60;21.60;;;;;;;1.45;39.36;101391.54;117297;1186;22045;-57
2022/03/26 03:52:48;;;;;;;37.50;23.50;;;;;;;1.46;39.54;101388.86;117633;1186;23464;-50
2022/03/26 03:55:17;;;;;;;39.10;22.00;;;;;;;1.46;39.50;101388.33;117546;1186;23441;-57
2022/03/26 03:57:46;;;;;;;40.10;22.90;;;;;;;1.45;39.46;101388.98;117356;1185;21861;-50
2022/03/26 04:00:16;;;;;;;34.30;23.70;;;;;;;1.44;39.51;101386.88;117376;1185;21849;-57
2022/03/26 04:02:45;;;;;;;;;;;;;;;1.49;39.68;101387.06;117332;1185;23427;-50
2022/03/26 04:05:14;;;;;;;32.40;20.80;;;;;;;1.54;39.64;101382.23;117331;1184;23480;-57
2022/03/26 04:07:44;;;;;;;34.70;22.30;;;;;;;1.50;39.77;101382.44;117291;1185;23887;-58
2022/03/26 04:10:33;;;;;;;37.80;21.70;;;;;;;1.49;39.58;101390.69;117293;1182;21874;-50
2022/03/26 04:13:02;;;;;;;40.20;21.40;;;;;;;1.46;39.88;101395.75;117337;1185;22499;-50
2022/03/26 04:15:50;;;;;;;37.40;23.80;;;;;;;1.47;39.83;101398.09;117252;1185;24200;-57
2022/03/26 04:18:20;;;;;;;38.60;22.70;;;;;;;1.48;39.75;101403.30;117316;1188;21860;-50
2022/03/26 04:20:53;;;;;;;42.70;23.20;;;;;;;1.45;40.01;101400.73;117384;1185;23459;-50
2022/03/26 04:23:22;;;;;;;32.30;21.50;;;;;;;1.45;40.05;101398.15;119383;1184;21768;-51
2022/03/26 04:25:51;;;;;;;30.20;20.20;;;;;;;1.48;39.99;101401.02;117349;1186;21878;-52
2022/03/26 04:28:21;;;;;;;28.50;18.90;;;;;;;1.52;40.23;101400.66;117381;1185;21891;-52
2022/03/26 04:30:51;;;;;;;35.00;20.90;;;;;;;1.56;40.21;101399.42;117289;1182;21852;-50
2022/03/26 04:33:20;;;;;;;37.50;22.20;;;;;;;1.64;40.42;101400.30;117273;1185;23611;-50
2022/03/26 04:35:48;;;;;;;37.00;21.70;;;;;;;1.73;40.29;101399.30;117325;1185;21858;-59
2022/03/26 04:38:17;;;;;;;32.10;21.30;;;;;;;1.77;40.43;101399.79;117315;1185;23535;-58
2022/03/26 04:40:47;;;;;;;33.70;21.70;;;;;;;1.83;40.31;101396.89;117333;1185;23438;-50
2022/03/26 04:43:16;;;;;;;39.50;22.90;;;;;;;1.87;40.50;101396.02;117205;1186;22826;-50
2022/03/26 04:45:45;;;;;;;35.00;21.10;;;;;;;1.94;40.48;101394.75;117328;1186;24135;-59
2022/03/26 04:48:14;;;;;;;37.70;22.90;;;;;;;2.05;40.81;101391.52;117316;1184;24154;-51
2022/03/26 04:50:43;;;;;;;34.70;22.50;;;;;;;2.21;40.67;101390.89;117296;1180;21999;-58
2022/03/26 04:53:13;;;;;;;29.70;19.70;;;;;;;2.31;40.72;101394.56;117534;1185;21855;-57
2022/03/26 04:55:42;;;;;;;30.00;19.50;;;;;;;2.40;40.76;101398.37;117294;1186;24686;-57
2022/03/26 04:58:11;;;;;;;32.30;19.50;;;;;;;2.49;40.67;101401.66;117319;1186;21964;-49
2022/03/26 05:00:40;;;;;;;31.10;21.40;;;;;;;2.61;40.92;101401.42;117269;1186;22912;-52
2022/03/26 05:03:10;;;;;;;29.90;19.30;;;;;;;2.73;40.99;101400.27;117324;1186;21848;-57
2022/03/26 05:05:39;;;;;;;30.60;20.60;;;;;;;2.86;41.28;101399.38;117195;1186;21849;-57
2022/03/26 05:08:08;;;;;;;34.60;22.10;;;;;;;3.02;41.22;101401.30;117315;1186;23531;-50
2022/03/26 05:10:56;;;;;;;33.60;22.20;;;;;;;3.21;41.27;101404.55;117271;1186;22912;-50
2022/03/26 05:13:26;;;;;;;30.80;20.50;;;;;;;3.38;41.44;101403.59;117372;1185;22015;-57
2022/03/26 05:15:55;;;;;;;32.90;19.70;;;;;;;3.57;41.57;101403.84;117360;1186;21870;-57
2022/03/26 05:18:26;;;;;;;29.60;18.60;;;;;;;3.75;41.56;101405.82;117269;1186;23643;-49
2022/03/26 05:20:56;;;;;;;30.70;21.00;;;;;;;3.96;41.63;101407.85;117333;1185;23552;-50
2022/03/26 05:23:25;;;;;;;27.30;18.80;;;;;;;4.17;41.77;101412.50;117295;1185;21931;-50
2022/03/26 05:25:55;;;;;;;29.90;19.90;;;;;;;4.36;41.86;101404.23;117340;1185;21852;-50
2022/03/26 05:28:24;;;;;;;29.80;18.80;;;;;;;4.58;42.00;101402.23;117315;1185;21870;-57
2022/03/26 05:30:54;;;;;;;26.60;17.60;;;;;;;4.81;42.02;101397.48;117333;1186;21861;-49
2022/03/26 05:33:22;;;;;;;26.80;18.50;;;;;;;5.06;42.07;101399.20;117330;1186;21864;-57
2022/03/26 05:35:51;;;;;;;25.30;18.90;;;;;;;5.32;42.01;101393.44;117382;1185;23432;-57
2022/03/26 05:38:19;;;;;;;24.90;17.50;;;;;;;5.62;42.31;101396.77;117342;1185;23456;-57
2022/03/26 05:40:49;;;;;;;25.20;17.50;;;;;;;5.97;42.82;101393.44;117355;1185;21849;-58
2022/03/26 05:43:17;;;;;;;24.10;17.30;;;;;;;6.37;42.95;101392.41;117389;1187;23615;-52
2022/03/26 05:45:50;;;;;;;25.90;17.40;;;;;;;6.80;42.80;101388.92;117295;1186;23121;-57
2022/03/26 05:48:19;;;;;;;28.10;18.70;;;;;;;7.17;42.83;101392.91;117304;1186;24798;-51
2022/03/26 05:50:48;;;;;;;24.40;16.60;;;;;;;7.45;42.56;101395.84;117323;1186;21862;-56
2022/03/26 05:53:17;;;;;;;23.70;17.20;;;;;;;7.70;42.60;101392.56;117193;1184;22004;-57
2022/03/26 05:55:46;;;;;;;20.60;15.40;;;;;;;7.89;42.22;101391.81;117300;1186;23625;-56
2022/03/26 05:58:17;;;;;;;21.80;16.00;;;;;;;8.04;42.08;101389.08;117283;1189;21898;-55
2022/03/26 06:00:49;;;;;;;22.80;15.80;;;;;;;8.20;41.98;101387.89;117188;1185;21849;-51
2022/03/26 06:03:18;;;;;;;22.60;17.10;;;;;;;8.36;42.06;101384.78;117174;1186;21877;-58
2022/03/26 06:05:48;;;;;;;21.50;15.50;;;;;;;8.56;42.11;101387.67;118178;1185;23426;-53
2022/03/26 06:08:17;;;;;;;19.80;14.40;;;;;;;8.77;42.01;101385.66;117302;1185;23535;-58
2022/03/26 06:10:45;;;;;;;21.30;16.30;;;;;;;8.97;42.09;101379.94;117343;1186;21858;-58
2022/03/26 06:13:14;;;;;;;22.40;15.70;;;;;;;9.17;42.06;101378.01;117322;1185;23363;-53
2022/03/26 06:15:59;;;;;;;26.50;16.10;;;;;;;9.32;41.88;101378.67;117335;1185;24252;-51
2022/03/26 06:18:29;;;;;;;20.60;15.30;;;;;;;9.44;41.83;101384.73;117304;1186;22970;-57
2022/03/26 06:21:05;;;;;;;25.30;16.80;;;;;;;9.58;41.72;101386.08;117484;1185;24140;-51
2022/03/26 06:23:33;;;;;;;27.00;17.10;;;;;;;9.71;41.61;101386.17;117238;1186;22194;-58
2022/03/26 06:26:03;;;;;;;18.50;14.40;;;;;;;9.80;41.44;101386.78;117284;1185;21856;-51
2022/03/26 06:28:32;;;;;;;59.40;18.50;;;;;;;9.91;41.37;101387.89;117374;1185;23430;-52
2022/03/26 06:31:02;;;;;;;22.50;15.40;;;;;;;10.02;41.53;101385.16;117301;1185;23432;-58
2022/03/26 06:33:30;;;;;;;21.80;16.40;;;;;;;10.16;41.36;101385.94;117277;1186;21855;-59
2022/03/26 06:36:00;;;;;;;25.60;14.70;;;;;;;10.29;41.29;101384.78;117258;1185;23449;-53
2022/03/26 06:38:31;;;;;;;21.90;15.20;;;;;;;10.42;41.44;101380.66;117239;1186;24123;-58
2022/03/26 06:41:00;;;;;;;23.20;17.00;;;;;;;10.55;41.23;101380.90;117246;1186;23545;-54
2022/03/26 06:43:29;;;;;;;22.00;16.10;;;;;;;10.63;41.16;101378.46;117308;1186;22825;-57
2022/03/26 06:45:59;;;;;;;29.30;15.60;;;;;;;10.72;41.15;101377.79;117268;1185;21849;-58
2022/03/26 06:48:28;;;;;;;19.20;14.60;;;;;;;10.87;41.14;101375.72;117284;1185;21953;-57
2022/03/26 06:50:58;;;;;;;21.60;15.40;;;;;;;11.10;41.15;101375.60;118866;1185;22989;-52
2022/03/26 06:53:29;;;;;;;17.70;13.70;;;;;;;11.36;41.29;101375.62;117157;1188;21858;-52
2022/03/26 06:55:57;;;;;;;20.10;15.00;;;;;;;11.54;41.10;101372.98;117345;1185;21849;-57
2022/03/26 06:58:26;;;;;;;18.80;15.00;;;;;;;11.72;41.06;101372.98;117399;1185;23517;-53
2022/03/26 07:00:54;;;;;;;19.60;14.90;;;;;;;11.99;41.25;101372.41;117095;1187;23433;-58
2022/03/26 07:03:24;;;;;;;23.60;13.80;;;;;;;12.26;41.08;101376.93;117299;1185;21833;-59
2022/03/26 07:05:54;;;;;;;23.40;14.40;;;;;;;12.52;41.06;101375.24;117288;1185;21899;-57
2022/03/26 07:08:23;;;;;;;17.30;13.60;;;;;;;12.72;40.77;101373.39;117096;1188;21895;-58
2022/03/26 07:10:52;;;;;;;20.20;15.10;;;;;;;12.77;40.59;101373.71;117353;1186;21946;-58
2022/03/26 07:13:20;;;;;;;19.30;15.00;;;;;;;12.91;40.56;101370.30;117241;1186;24261;-58
2022/03/26 07:15:56;;;;;;;21.60;16.40;;;;;;;13.04;40.46;101368.45;117277;1185;23432;-54
2022/03/26 07:18:25;;;;;;;19.60;15.30;;;;;;;13.11;40.23;101372.09;117277;1186;23605;-58
2022/03/26 07:21:02;;;;;;;19.90;15.60;;;;;;;13.20;40.09;101371.16;117297;1186;22913;-57
2022/03/26 07:23:31;;;;;;;22.30;17.10;;;;;;;13.31;39.98;101374.23;117245;1185;23482;-58
2022/03/26 07:26:00;;;;;;;19.80;14.90;;;;;;;13.40;39.88;101377.02;119350;1186;21790;-54
2022/03/26 07:28:28;;;;;;;20.00;15.10;;;;;;;13.47;39.92;101374.67;117799;1185;24150;-54
2022/03/26 07:30:58;;;;;;;21.70;14.90;;;;;;;13.67;40.05;101370.80;117267;1186;21854;-59
2022/03/26 07:33:28;;;;;;;25.80;15.40;;;;;;;13.96;40.05;101365.40;116998;1188;21857;-55
2022/03/26 07:36:01;;;;;;;24.80;14.40;;;;;;;14.20;39.91;101368.30;117298;1188;21878;-59
2022/03/26 07:38:30;;;;;;;22.50;14.70;;;;;;;14.36;39.78;101371.46;117368;1185;24142;-57
2022/03/26 07:40:58;;;;;;;17.80;13.40;;;;;;;14.52;39.43;101372.16;117340;1186;21865;-55
2022/03/26 07:43:27;;;;;;;33.20;15.40;;;;;;;14.59;39.43;101369.78;117272;1186;22525;-57
2022/03/26 07:45:56;;;;;;;17.50;13.30;;;;;;;14.75;39.45;101375.08;117043;1188;23432;-59
2022/03/26 07:48:25;;;;;;;16.40;11.70;;;;;;;14.84;39.08;101376.54;117312;1184;23442;-56
2022/03/26 07:50:55;;;;;;;18.60;12.50;;;;;;;14.85;38.94;101375.27;117283;1185;21856;-56
2022/03/26 07:53:25;;;;;;;14.90;11.50;;;;;;;14.89;38.59;101368.70;117276;1185;21858;-56
2022/03/26 07:55:58;;;;;;;14.30;11.00;;;;;;;14.98;38.72;101364.66;117274;1186;21863;-58
2022/03/26 07:58:27;;;;;;;14.50;10.50;;;;;;;15.11;38.61;101363.05;117403;1185;22159;-60
2022/03/26 08:00:57;;;;;;;13.10;10.30;;;;;;;15.12;38.49;101360.56;117087;1188;22195;-55
2022/03/26 08:03:26;;;;;;;12.90;9.90;;;;;;;15.19;38.45;101359.94;117064;1186;23544;-55
2022/03/26 08:05:54;;;;;;;13.40;9.40;;;;;;;15.26;38.41;101361.23;117072;1188;24693;-56
2022/03/26 08:08:23;;;;;;;15.00;10.10;;;;;;;15.41;38.36;101363.30;117337;1185;23531;-55
2022/03/26 08:10:54;;;;;;;13.50;9.20;;;;;;;15.43;38.09;101365.03;117262;1186;21850;-59
2022/03/26 08:13:24;;;;;;;11.90;9.10;;;;;;;15.48;38.07;101364.77;117230;1186;22837;-56
2022/03/26 08:15:58;;;;;;;19.00;9.60;;;;;;;15.52;37.92;101365.21;117317;1186;22760;-55
2022/03/26 08:18:27;;;;;;;10.30;8.20;;;;;;;15.53;37.80;101368.05;117361;1183;22906;-58
2022/03/26 08:20:55;;;;;;;12.30;8.20;;;;;;;15.47;37.60;101366.36;117362;1185;23459;-55
2022/03/26 08:23:24;;;;;;;10.40;8.10;;;;;;;15.46;37.64;101367.63;117320;1185;24277;-59
2022/03/26 08:28:42;;;;;;;12.60;9.00;;;;;;;15.58;37.39;101361.78;117295;1186;23433;-55
2022/03/26 08:31:13;;;;;;;10.80;9.10;;;;;;;15.78;37.36;101356.10;118006;1185;21849;-56
2022/03/26 08:33:42;;;;;;;11.90;10.00;;;;;;;16.03;37.05;101351.06;117301;1185;22122;-55
2022/03/26 08:36:10;;;;;;;11.60;8.90;;;;;;;16.12;37.20;101346.09;117258;1186;21939;-59
2022/03/26 08:38:39;;;;;;;13.10;9.90;;;;;;;16.13;37.03;101337.23;117267;1185;23482;-59
2022/03/26 08:41:08;;;;;;;13.00;9.60;;;;;;;16.09;37.00;101331.13;117346;1185;21889;-56
2022/03/26 08:43:37;;;;;;;11.90;9.20;;;;;;;16.19;36.98;101325.23;117328;1185;23459;-55
2022/03/26 08:46:05;;;;;;;10.60;8.70;;;;;;;16.37;36.97;101320.80;117324;1186;22052;-55
2022/03/26 08:48:34;;;;;;;15.10;10.00;;;;;;;16.47;36.88;101312.27;117353;1186;21852;-55
2022/03/26 08:51:03;;;;;;;12.10;8.90;;;;;;;16.45;36.73;101307.35;117275;1185;21852;-56
2022/03/26 08:53:31;;;;;;;13.10;9.20;;;;;;;16.33;36.46;101298.38;117344;1186;23468;-59
2022/03/26 08:56:01;;;;;;;10.70;8.30;;;;;;;16.30;36.58;101288.55;117396;1184;22909;-59
2022/03/26 08:58:30;;;;;;;14.90;8.60;;;;;;;16.39;36.58;101283.20;117308;1186;22156;-59
2022/03/26 09:00:59;;;;;;;9.60;7.60;;;;;;;16.44;36.31;101273.17;117353;1185;21852;-55
2022/03/26 09:03:27;;;;;;;10.10;7.10;;;;;;;16.44;36.32;101268.02;117311;1185;23512;-59
2022/03/26 09:05:57;;;;;;;10.80;6.50;;;;;;;16.47;36.27;101267.10;116989;1187;23440;-58
2022/03/26 09:08:26;;;;;;;7.70;6.50;;;;;;;16.50;36.21;101265.80;117010;1187;24221;-60
2022/03/26 09:10:56;;;;;;;10.60;7.10;;;;;;;16.55;36.14;101261.06;117078;1188;23435;-60
2022/03/26 09:13:25;;;;;;;10.80;7.30;;;;;;;16.66;36.15;101256.90;117128;1188;23710;-55
2022/03/26 09:16:13;;;;;;;9.20;6.90;;;;;;;16.78;35.99;101256.09;117076;1186;23433;-60
2022/03/26 09:18:42;;;;;;;11.20;7.30;;;;;;;16.83;35.93;101252.77;117195;1187;23535;-58
2022/03/26 09:21:11;;;;;;;9.30;6.40;;;;;;;16.84;35.71;101256.30;117343;1187;23511;-60
2022/03/26 09:23:40;;;;;;;11.30;6.90;;;;;;;16.80;35.50;101252.67;117566;1186;21862;-58
2022/03/26 09:26:11;;;;;;;9.30;6.90;;;;;;;16.79;35.59;101248.61;117122;1187;23747;-60
2022/03/26 09:28:39;;;;;;;18.20;7.60;;;;;;;16.82;35.46;101251.74;117081;1187;23455;-55
2022/03/26 09:31:08;;;;;;;9.30;6.30;;;;;;;16.85;35.37;101242.09;117114;1187;22973;-57
2022/03/26 09:33:37;;;;;;;8.30;5.90;;;;;;;16.89;35.20;101237.56;117155;1187;21854;-55
2022/03/26 09:36:05;;;;;;;10.50;6.60;;;;;;;16.86;35.08;101236.05;117087;1186;23455;-55
2022/03/26 09:38:34;;;;;;;10.60;6.50;;;;;;;16.87;35.15;101231.05;117103;1188;24693;-56
2022/03/26 09:41:04;;;;;;;8.40;6.20;;;;;;;17.06;35.32;101232.39;117145;1188;21860;-58
2022/03/26 09:43:39;;;;;;;8.20;5.90;;;;;;;17.21;35.17;101224.75;117124;1188;23446;-59
2022/03/26 09:46:08;;;;;;;7.60;5.80;;;;;;;17.27;35.11;101217.66;117053;1187;21898;-56
2022/03/26 09:48:39;;;;;;;7.50;5.50;;;;;;;17.37;35.02;101221.11;117025;1188;22029;-55
2022/03/26 09:51:08;;;;;;;12.10;6.50;;;;;;;17.49;34.93;101217.77;117240;1186;21880;-59
2022/03/26 09:53:37;;;;;;;7.80;5.70;;;;;;;17.61;34.84;101210.17;117357;1182;24327;-59
2022/03/26 09:56:07;;;;;;;7.50;5.80;;;;;;;17.67;34.74;101207.16;117206;1186;21840;-59
2022/03/26 09:58:36;;;;;;;7.70;5.40;;;;;;;17.75;34.62;101205.33;117233;1185;21863;-59
2022/03/26 10:01:05;;;;;;;8.80;6.00;;;;;;;17.85;34.55;101204.33;117181;1188;21846;-56
2022/03/26 10:03:39;;;;;;;7.60;5.60;;;;;;;17.96;34.54;101193.18;117269;1186;21985;-56
2022/03/26 10:06:14;;;;;;;9.70;6.20;;;;;;;18.03;34.23;101186.63;117213;1187;21853;-59
2022/03/26 10:08:42;;;;;;;12.10;6.60;;;;;;;18.05;34.24;101180.16;117199;1186;21916;-59
2022/03/26 10:11:19;;;;;;;8.50;5.50;;;;;;;18.02;34.00;101179.34;117783;1187;23423;-60
2022/03/26 10:13:50;;;;;;;9.20;6.10;;;;;;;18.05;34.06;101173.77;116968;1188;22917;-56
2022/03/26 10:16:19;;;;;;;8.70;5.90;;;;;;;18.10;33.98;101176.42;117131;1182;23459;-56
2022/03/26 10:18:48;;;;;;;7.60;5.60;;;;;;;18.15;33.88;101171.16;116984;1188;23555;-59
2022/03/26 10:21:18;;;;;;;8.20;5.90;;;;;;;18.19;33.82;101163.37;117062;1187;23509;-59
2022/03/26 10:23:53;;;;;;;13.70;7.10;;;;;;;18.17;33.63;101157.92;117037;1187;24149;-56
2022/03/26 10:26:23;;;;;;;10.30;6.30;;;;;;;18.30;33.93;101154.50;117148;1187;21860;-54
2022/03/26 10:29:01;;;;;;;8.80;6.20;;;;;;;18.48;33.76;101151.42;117109;1188;23472;-60
2022/03/26 10:34:20;;;;;;;8.40;6.40;;;;;;;18.51;33.55;101136.58;117186;1186;21865;-62
2022/03/26 10:36:57;;;;;;;9.10;5.80;;;;;;;18.66;33.51;101136.25;117308;1184;21853;-56
2022/03/26 10:39:27;;;;;;;10.20;6.50;;;;;;;18.85;33.48;101135.98;117255;1186;22701;-56
2022/03/26 10:41:55;;;;;;;9.50;6.20;;;;;;;18.89;33.20;101123.92;117252;1182;21960;-57
2022/03/26 10:44:28;;;;;;;35.50;27.40;;;;;;;18.92;33.05;101119.38;117147;1188;21862;-58
2022/03/26 10:46:59;;;;;;;23.20;15.80;;;;;;;18.94;33.10;101116.65;117114;1186;22609;-63
2022/03/26 10:49:32;;;;;;;16.70;10.00;;;;;;;18.98;33.08;101111.71;117113;1188;22989;-56
2022/03/26 10:52:14;;;;;;;57.70;35.50;;;;;;;18.99;32.89;101105.44;117196;1186;24146;-63
2022/03/26 10:54:43;;;;;;;51.30;35.10;;;;;;;18.91;32.62;101101.09;117371;1186;21908;-57
2022/03/26 10:57:12;;;;;;;42.20;24.50;;;;;;;19.04;32.80;101096.38;117293;1186;22892;-56
2022/03/26 10:59:40;;;;;;;12.00;8.90;;;;;;;19.24;32.72;101088.20;117310;1186;21857;-57
2022/03/26 11:02:09;;;;;;;10.80;7.70;;;;;;;19.35;32.72;101084.05;117228;1185;21846;-63
2022/03/26 11:04:38;;;;;;;29.60;17.80;;;;;;;19.34;32.48;101076.98;117238;1186;23659;-57
2022/03/26 11:07:06;;;;;;;19.60;11.20;;;;;;;19.36;32.49;101071.38;117083;1185;23457;-56
2022/03/26 11:09:36;;;;;;;11.10;8.00;;;;;;;19.40;32.38;101064.45;117192;1187;24358;-63
2022/03/26 11:12:06;;;;;;;10.10;6.90;;;;;;;19.40;32.30;101060.36;117224;1187;23241;-57
2022/03/26 11:14:38;;;;;;;13.30;8.70;;;;;;;19.43;32.24;101051.90;117693;1186;21852;-63
2022/03/26 11:17:16;;;;;;;10.10;7.00;;;;;;;19.44;32.17;101051.46;117256;1180;21855;-63
2022/03/26 11:20:15;;;;;;;15.10;8.50;;;;;;;19.46;32.07;101049.61;117310;1185;21841;-63
2022/03/26 11:23:08;;;;;;;15.50;10.60;;;;;;;19.41;31.90;101042.02;117318;1185;22912;-57
2022/03/26 11:26:12;;;;;;;11.80;8.30;;;;;;;19.29;31.84;101033.05;117598;1185;23580;-56
2022/03/26 11:28:53;;;;;;;11.20;6.70;;;;;;;19.52;32.03;101028.75;117392;1186;21858;-65